Date,TemperatureHighF,TemperatureAvgF,TemperatureLowF,DewpointHighF,DewpointAvgF,DewpointLowF,HumidityHigh,HumidityAvg,HumidityLow,PressureMaxIn,PressureMinIn,WindSpeedMaxMPH,WindSpeedAvgMPH,GustSpeedMaxMPH,PrecipitationSumIn
2013-1-1,73.0,61.9,53.0,-99.9,-99.9,-99.9,0,0,100,30.30,30.06,17,0,20,0.00
2013-1-2,73.0,63.0,58.0,-99.9,-99.9,-99.9,0,0,100,30.14,30.03,15,7,20,0.00
2013-1-3,60.0,55.9,49.0,-99.9,-99.9,-99.9,0,0,100,30.30,30.12,14,8,18,0.00
2013-1-4,55.0,51.2,49.0,-99.9,-99.9,-99.9,0,0,100,30.38,30.28,13,8,17,0.00
2013-1-5,57.0,52.2,45.0,-99.9,-99.9,-99.9,0,0,100,30.41,30.32,13,8,16,0.00
2013-1-6,61.0,55.8,52.0,-99.9,-99.9,-99.9,0,0,100,30.32,30.18,12,6,16,0.00
2013-1-7,59.0,54.7,48.0,-99.9,-99.9,-99.9,0,0,100,30.35,30.24,23,14,29,0.00
2013-1-8,63.0,59.1,56.0,-99.9,-99.9,-99.9,0,0,100,30.35,30.25,19,10,24,0.00
2013-1-9,65.0,60.4,58.0,-99.9,-99.9,-99.9,0,0,100,30.41,30.29,14,0,17,0.00
2013-1-10,68.0,63.0,58.0,-99.9,-99.9,-99.9,0,0,100,30.42,30.34,11,-9,14,0.00
2013-1-11,78.0,68.9,64.0,-99.9,-99.9,-99.9,0,0,100,30.35,30.23,14,6,18,0.00
2013-1-12,75.0,66.7,59.0,-99.9,-99.9,-99.9,0,0,100,30.27,30.17,10,-54,14,0.00
2013-1-13,76.0,67.8,62.0,-99.9,-99.9,-99.9,0,0,100,30.24,30.14,11,5,14,0.00
2013-1-14,77.0,70.8,64.0,-99.9,-99.9,-99.9,0,0,100,30.26,30.18,12,8,17,0.00
2013-1-15,76.0,68.9,63.0,-99.9,-99.9,-99.9,0,0,100,30.23,30.12,11,6,17,0.00
2013-1-16,79.0,70.2,65.0,-99.9,-99.9,-99.9,0,0,100,30.15,30.05,15,7,21,0.00
2013-1-17,75.0,61.5,44.0,-99.9,-99.9,-99.9,0,0,100,30.19,29.94,28,13,37,0.00
2013-1-18,56.0,51.2,43.0,-99.9,-99.9,-99.9,0,0,100,30.46,30.19,30,21,37,0.00
2013-1-19,57.0,55.5,53.0,-99.9,-99.9,-99.9,0,0,100,30.43,30.26,25,16,30,0.00
2013-1-20,66.0,58.8,54.0,-99.9,-99.9,-99.9,0,0,100,30.28,30.14,11,-16,14,0.00
2013-1-21,66.0,57.8,52.0,-99.9,-99.9,-99.9,0,0,100,30.19,30.09,9,-3,13,0.00
2013-1-22,61.0,53.3,47.0,-99.9,-99.9,-99.9,0,0,100,30.36,30.15,13,8,20,0.00
2013-1-23,61.0,49.7,41.0,-99.9,-99.9,-99.9,0,0,100,30.48,30.33,13,5,16,0.00
2013-1-24,70.0,59.5,49.0,-99.9,-99.9,-99.9,0,0,100,30.35,30.24,21,10,27,0.00
2013-1-25,68.0,58.1,56.0,-99.9,-99.9,-99.9,0,0,100,30.39,30.23,19,-39,23,0.00
2013-1-26,73.0,63.5,55.0,-99.9,-99.9,-99.9,0,0,100,30.29,30.21,14,1,18,0.00
2013-1-27,62.0,60.1,58.0,-99.9,-99.9,-99.9,0,0,100,30.44,30.29,20,14,25,0.00
2013-1-28,67.0,61.6,58.0,-99.9,-99.9,-99.9,0,0,100,30.45,30.33,13,-64,14,0.00
2013-1-29,72.0,66.6,61.0,-99.9,-99.9,-99.9,0,0,100,30.34,30.17,12,-17,18,0.00
2013-1-30,81.0,71.4,66.0,-99.9,-99.9,-99.9,0,0,100,30.18,29.84,27,9,38,0.00
2013-1-31,58.0,52.9,48.0,-99.9,-99.9,-99.9,0,0,100,30.31,29.92,27,12,38,0.00